Time;durP1;ratioP1;P1;durP2;ratioP2;P2;SDS_P1;SDS_P2;PMS_P1;PMS_P2;Temp;Humidity;BMP_temperature;BMP_pressure;BME280_temperature;BME280_humidity;BME280_pressure;Samples;Min_cycle;Max_cycle;Signal;HPM_P1;HPM_P2
2023/10/02 00:00:39;;;;;;;10.50;3.50;;;;;;;;;;4957643;29;20114;-62
2023/10/02 00:03:05;;;;;;;9.18;4.00;;;;;;;;;;4957221;28;20544;-62
2023/10/02 00:05:40;;;;;;;13.00;4.30;;;;;;;;;;4957381;28;20122;-61
2023/10/02 00:08:06;;;;;;;8.15;3.58;;;;;;;;;;4963872;28;20038;-64
2023/10/02 00:10:32;;;;;;;10.68;3.90;;;;;;;;;;4976627;28;20049;-62
2023/10/02 00:13:00;;;;;;;9.70;3.70;;;;;;;;;;4976600;28;20031;-62
2023/10/02 00:15:26;;;;;;;12.55;4.15;;;;;;;;;;4976567;28;20030;-65
2023/10/02 00:17:51;;;;;;;9.27;3.60;;;;;;;;;;4976330;28;20039;-61
2023/10/02 00:20:21;;;;;;;12.60;4.30;;;;;;;;;;4976552;28;20113;-67
2023/10/02 00:22:47;;;;;;;12.13;4.35;;;;;;;;;;4976272;28;20019;-62
2023/10/02 00:25:19;;;;;;;8.70;4.20;;;;;;;;;;4976259;28;20435;-63
2023/10/02 00:27:51;;;;;;;8.40;3.72;;;;;;;;;;4976371;28;20038;-61
2023/10/02 00:30:22;;;;;;;9.05;4.35;;;;;;;;;;4976353;28;20031;-62
2023/10/02 00:32:49;;;;;;;8.05;4.10;;;;;;;;;;4975580;28;20146;-62
2023/10/02 00:35:15;;;;;;;11.77;4.20;;;;;;;;;;4976285;28;20029;-62
2023/10/02 00:37:51;;;;;;;9.68;4.13;;;;;;;;;;4976115;28;20613;-62
2023/10/02 00:40:22;;;;;;;13.32;5.10;;;;;;;;;;4976162;28;20031;-62
2023/10/02 00:42:49;;;;;;;10.85;4.28;;;;;;;;;;4974195;28;20023;-62
2023/10/02 00:45:17;;;;;;;8.90;3.83;;;;;;;;;;4956783;28;20143;-62
2023/10/02 00:47:42;;;;;;;13.00;4.95;;;;;;;;;;4956373;28;20038;-62
2023/10/02 00:50:17;;;;;;;10.98;4.07;;;;;;;;;;4956650;28;20373;-61
2023/10/02 00:53:04;;;;;;;11.43;4.13;;;;;;;;;;4955222;29;20046;-68
2023/10/02 00:55:32;;;;;;;15.02;4.50;;;;;;;;;;4956514;28;20039;-62
2023/10/02 00:57:59;;;;;;;12.45;4.40;;;;;;;;;;4956515;28;20366;-62
2023/10/02 01:00:35;;;;;;;11.43;4.28;;;;;;;;;;4956509;28;20098;-62
2023/10/02 01:03:05;;;;;;;10.15;4.07;;;;;;;;;;4956237;28;20027;-62
2023/10/02 01:05:41;;;;;;;9.50;4.32;;;;;;;;;;4956262;28;20039;-63
2023/10/02 01:08:23;;;;;;;11.32;4.70;;;;;;;;;;4962999;28;20041;-62
2023/10/02 01:11:02;;;;;;;12.23;4.25;;;;;;;;;;4975521;28;20026;-63
2023/10/02 01:13:34;;;;;;;11.77;4.53;;;;;;;;;;4975361;28;20030;-62
2023/10/02 01:16:07;;;;;;;9.63;4.22;;;;;;;;;;4975158;28;20033;-62
2023/10/02 01:18:33;;;;;;;12.13;4.40;;;;;;;;;;4975441;28;20031;-63
2023/10/02 01:21:00;;;;;;;9.20;4.40;;;;;;;;;;4975172;28;20042;-65
2023/10/02 01:23:33;;;;;;;8.50;4.13;;;;;;;;;;4975137;28;20035;-64
2023/10/02 01:26:01;;;;;;;9.25;4.38;;;;;;;;;;4975215;28;20125;-63
2023/10/02 01:28:32;;;;;;;12.80;4.40;;;;;;;;;;4975231;28;20035;-62
2023/10/02 01:31:01;;;;;;;10.95;4.60;;;;;;;;;;4975026;28;20029;-62
2023/10/02 01:33:26;;;;;;;9.65;3.60;;;;;;;;;;4974943;28;20241;-62
2023/10/02 01:35:56;;;;;;;12.10;4.53;;;;;;;;;;4975118;28;20023;-62
2023/10/02 01:38:26;;;;;;;10.07;4.40;;;;;;;;;;4975059;28;20531;-62
2023/10/02 01:41:02;;;;;;;9.05;4.13;;;;;;;;;;4975160;28;20453;-62
2023/10/02 01:43:32;;;;;;;9.55;4.20;;;;;;;;;;4974770;28;20505;-62
2023/10/02 01:45:58;;;;;;;9.57;4.40;;;;;;;;;;4958815;28;20098;-62
2023/10/02 01:48:36;;;;;;;9.50;4.20;;;;;;;;;;4955551;28;20031;-62
2023/10/02 01:51:15;;;;;;;14.90;4.45;;;;;;;;;;4955491;28;20027;-62
2023/10/02 01:53:48;;;;;;;9.25;4.30;;;;;;;;;;4955400;28;20059;-61
2023/10/02 01:56:15;;;;;;;11.77;4.30;;;;;;;;;;4955470;28;20471;-67
2023/10/02 01:58:42;;;;;;;10.00;4.60;;;;;;;;;;4955415;29;20031;-64
2023/10/02 02:01:11;;;;;;;11.45;5.05;;;;;;;;;;4972497;28;20041;-63
2023/10/02 02:03:41;;;;;;;13.23;4.23;;;;;;;;;;4974581;28;20027;-63
2023/10/02 02:06:11;;;;;;;10.68;4.18;;;;;;;;;;4974747;28;20761;-61
2023/10/02 02:08:47;;;;;;;10.35;4.72;;;;;;;;;;4974327;28;20096;-61
2023/10/02 02:11:23;;;;;;;9.18;4.30;;;;;;;;;;4974437;28;20041;-61
2023/10/02 02:13:58;;;;;;;10.70;4.40;;;;;;;;;;4974362;28;20113;-61
2023/10/02 02:16:30;;;;;;;10.65;3.95;;;;;;;;;;4974418;28;20031;-61
2023/10/02 02:18:58;;;;;;;11.27;4.50;;;;;;;;;;4974497;28;20035;-63
2023/10/02 02:21:24;;;;;;;10.02;4.60;;;;;;;;;;4974222;28;20031;-63
2023/10/02 02:24:03;;;;;;;8.43;4.30;;;;;;;;;;4973123;28;20031;-61
2023/10/02 02:26:33;;;;;;;8.57;4.15;;;;;;;;;;4974407;28;20472;-61
2023/10/02 02:29:01;;;;;;;11.18;4.28;;;;;;;;;;4974264;28;20041;-62
2023/10/02 02:31:30;;;;;;;11.48;3.97;;;;;;;;;;4974207;28;20050;-61
2023/10/02 02:33:57;;;;;;;8.10;4.00;;;;;;;;;;4978269;28;20479;-62
2023/10/02 02:36:25;;;;;;;9.55;4.38;;;;;;;;;;4974189;28;20110;-61
2023/10/02 02:39:15;;;;;;;8.63;4.55;;;;;;;;;;4974184;28;20058;-63
2023/10/02 02:41:46;;;;;;;13.50;3.95;;;;;;;;;;4987414;28;20534;-62
2023/10/02 02:47:00;;;;;;;6.57;3.75;;;;;;;;;;4978991;28;20077;-64
2023/10/02 02:49:26;;;;;;;7.90;4.18;;;;;;;;;;4974004;28;20572;-63
2023/10/02 02:51:55;;;;;;;9.75;4.53;;;;;;;;;;4973977;28;20492;-62
2023/10/02 02:54:24;;;;;;;10.02;4.13;;;;;;;;;;4973965;28;20037;-62
2023/10/02 02:56:56;;;;;;;7.37;3.80;;;;;;;;;;4976107;28;20034;-64
2023/10/02 02:59:26;;;;;;;8.63;3.78;;;;;;;;;;4977739;28;20260;-62
2023/10/02 03:01:52;;;;;;;10.80;4.28;;;;;;;;;;4978058;28;20027;-62
2023/10/02 03:04:18;;;;;;;9.15;4.10;;;;;;;;;;4977932;28;20102;-62
2023/10/02 03:06:43;;;;;;;10.27;4.65;;;;;;;;;;4977636;28;20060;-62
2023/10/02 03:09:10;;;;;;;8.32;3.95;;;;;;;;;;4977686;28;20047;-62
2023/10/02 03:11:37;;;;;;;8.38;4.00;;;;;;;;;;4977577;28;20050;-65
2023/10/02 03:14:16;;;;;;;8.35;3.67;;;;;;;;;;4977700;28;20109;-61
2023/10/02 03:16:45;;;;;;;9.55;4.40;;;;;;;;;;4977761;28;20035;-67
2023/10/02 03:19:13;;;;;;;9.30;4.45;;;;;;;;;;4977660;28;20365;-67
2023/10/02 03:21:42;;;;;;;10.43;4.10;;;;;;;;;;4976250;28;20022;-64
2023/10/02 03:24:08;;;;;;;10.07;4.25;;;;;;;;;;4976132;28;20027;-64
2023/10/02 03:29:04;;;;;;;11.80;4.18;;;;;;;;;;4977632;28;20058;-64
2023/10/02 03:31:35;;;;;;;14.15;4.03;;;;;;;;;;4977638;28;20038;-63
2023/10/02 03:36:54;;;;;;;11.60;4.75;;;;;;;;;;4977617;28;20034;-60
2023/10/02 03:42:11;;;;;;;12.88;3.88;;;;;;;;;;4977269;28;20034;-61
2023/10/02 03:44:37;;;;;;;;;;;;;;;;;;4977700;28;20026;-61
2023/10/02 03:47:03;;;;;;;8.15;4.00;;;;;;;;;;4977274;28;19921;-63
2023/10/02 03:49:28;;;;;;;10.60;4.05;;;;;;;;;;4977088;28;20038;-63
2023/10/02 03:51:55;;;;;;;9.18;4.13;;;;;;;;;;4977037;28;20026;-62
2023/10/02 03:54:21;;;;;;;8.45;3.63;;;;;;;;;;4976605;28;20110;-61
2023/10/02 03:56:51;;;;;;;10.60;3.90;;;;;;;;;;4976814;28;20026;-61
2023/10/02 03:59:21;;;;;;;11.00;4.10;;;;;;;;;;4976915;28;20078;-62
2023/10/02 04:01:47;;;;;;;11.45;3.92;;;;;;;;;;4977000;28;20162;-61
2023/10/02 04:06:42;;;;;;;6.90;3.72;;;;;;;;;;4976609;28;20034;-61
2023/10/02 04:09:18;;;;;;;8.68;4.10;;;;;;;;;;4975657;28;20093;-62
2023/10/02 04:11:45;;;;;;;10.30;4.10;;;;;;;;;;4976119;28;20042;-61
2023/10/02 04:14:17;;;;;;;7.43;3.85;;;;;;;;;;4976775;28;20023;-63
2023/10/02 04:16:47;;;;;;;7.82;3.92;;;;;;;;;;4976710;28;20038;-62
2023/10/02 04:19:16;;;;;;;12.38;3.63;;;;;;;;;;4976619;28;20027;-61
2023/10/02 04:21:45;;;;;;;6.45;3.70;;;;;;;;;;4976410;28;20023;-61
2023/10/02 04:24:11;;;;;;;7.28;3.58;;;;;;;;;;4976199;28;20077;-62
2023/10/02 04:26:36;;;;;;;8.10;4.15;;;;;;;;;;4975201;28;20113;-61
2023/10/02 04:32:04;;;;;;;6.60;3.75;;;;;;;;;;4978768;28;20400;-61
2023/10/02 04:34:31;;;;;;;9.80;3.72;;;;;;;;;;4976503;28;20049;-61
2023/10/02 04:36:57;;;;;;;9.05;3.75;;;;;;;;;;4976358;28;20035;-62
2023/10/02 04:42:12;;;;;;;8.68;4.25;;;;;;;;;;4976164;28;20034;-62
2023/10/02 04:44:44;;;;;;;9.82;3.67;;;;;;;;;;4976145;28;20081;-61
2023/10/02 04:47:20;;;;;;;11.93;4.60;;;;;;;;;;4976137;28;20037;-61
2023/10/02 04:55:24;;;;;;;12.13;4.13;;;;;;;;;;4975661;28;20046;-61
2023/10/02 04:57:54;;;;;;;9.68;3.72;;;;;;;;;;4974955;28;20452;-62
2023/10/02 05:00:32;;;;;;;12.60;4.03;;;;;;;;;;4975834;28;20046;-61
2023/10/02 05:05:49;;;;;;;8.73;4.30;;;;;;;;;;4976165;28;20038;-61
2023/10/02 05:08:19;;;;;;;8.45;3.50;;;;;;;;;;4975209;28;20401;-62
2023/10/02 05:10:56;;;;;;;9.90;3.90;;;;;;;;;;4975333;28;20495;-61
2023/10/02 05:16:11;;;;;;;8.65;4.25;;;;;;;;;;4975887;28;20045;-61
2023/10/02 05:18:37;;;;;;;11.82;4.30;;;;;;;;;;4975613;28;20448;-62
2023/10/02 05:21:04;;;;;;;9.82;3.92;;;;;;;;;;4974196;28;20568;-62
2023/10/02 05:23:30;;;;;;;9.50;4.22;;;;;;;;;;4975024;28;20059;-62
2023/10/02 05:26:00;;;;;;;9.95;3.70;;;;;;;;;;4975242;28;20393;-62
2023/10/02 05:28:38;;;;;;;;;;;;;;;;;;4975838;28;20031;-63
2023/10/02 05:31:07;;;;;;;8.13;3.65;;;;;;;;;;4975191;28;19937;-63
2023/10/02 05:33:37;;;;;;;11.97;4.40;;;;;;;;;;4979548;28;20464;-61
2023/10/02 05:36:08;;;;;;;7.43;3.85;;;;;;;;;;4974839;28;20264;-62
2023/10/02 05:38:34;;;;;;;12.52;4.80;;;;;;;;;;4974867;28;20035;-63
2023/10/02 05:41:00;;;;;;;10.57;4.15;;;;;;;;;;4974815;28;20049;-62
2023/10/02 05:43:28;;;;;;;7.30;4.13;;;;;;;;;;4975032;28;20093;-62
2023/10/02 05:45:55;;;;;;;10.97;3.93;;;;;;;;;;4974941;28;20027;-62
2023/10/02 05:50:57;;;;;;;9.70;4.10;;;;;;;;;;4974679;28;20054;-62
2023/10/02 05:53:25;;;;;;;9.57;3.70;;;;;;;;;;4974694;28;20034;-62
2023/10/02 05:55:57;;;;;;;8.77;3.53;;;;;;;;;;4974902;28;20065;-63
2023/10/02 05:58:32;;;;;;;9.05;3.85;;;;;;;;;;4974946;28;20018;-62
2023/10/02 06:01:03;;;;;;;9.02;3.92;;;;;;;;;;4974359;28;20027;-62
2023/10/02 06:03:35;;;;;;;;;;;;;;;;;;4975130;28;20065;-62
2023/10/02 06:06:18;;;;;;;12.15;4.03;;;;;;;;;;4974338;28;20334;-62
2023/10/02 06:08:49;;;;;;;6.65;3.50;;;;;;;;;;4974292;28;20042;-62
2023/10/02 06:11:35;;;;;;;8.25;4.00;;;;;;;;;;4974539;28;20034;-62
2023/10/02 06:14:11;;;;;;;10.55;4.32;;;;;;;;;;4974562;28;20030;-62
2023/10/02 06:16:41;;;;;;;7.53;3.60;;;;;;;;;;4973282;28;20338;-62
2023/10/02 06:19:13;;;;;;;9.23;4.25;;;;;;;;;;4974556;28;20054;-67
2023/10/02 06:21:47;;;;;;;11.10;3.72;;;;;;;;;;4973957;28;20122;-67
2023/10/02 06:24:17;;;;;;;8.45;4.03;;;;;;;;;;4974155;28;20026;-67
2023/10/02 06:26:58;;;;;;;13.07;4.03;;;;;;;;;;4974245;28;20034;-64
2023/10/02 06:29:29;;;;;;;12.63;4.32;;;;;;;;;;4974318;28;20586;-63
2023/10/02 06:31:58;;;;;;;8.88;4.82;;;;;;;;;;4977002;28;20471;-67
2023/10/02 06:34:43;;;;;;;9.20;3.80;;;;;;;;;;4974395;28;20142;-65
2023/10/02 06:37:16;;;;;;;13.55;4.75;;;;;;;;;;4974195;28;20027;-62
2023/10/02 06:40:06;;;;;;;9.02;4.65;;;;;;;;;;4974054;28;20035;-63
2023/10/02 06:42:32;;;;;;;14.73;5.10;;;;;;;;;;4974049;28;20018;-65
2023/10/02 06:45:01;;;;;;;13.32;5.18;;;;;;;;;;4973944;28;20030;-64
2023/10/02 06:47:29;;;;;;;8.70;4.68;;;;;;;;;;4963645;28;20023;-63
2023/10/02 06:52:41;;;;;;;12.32;4.32;;;;;;;;;;4980902;28;20175;-65
2023/10/02 06:55:07;;;;;;;10.40;4.28;;;;;;;;;;4973607;28;20027;-64
2023/10/02 06:57:36;;;;;;;11.18;4.32;;;;;;;;;;4973660;28;20031;-69
2023/10/02 07:00:04;;;;;;;7.15;4.05;;;;;;;;;;4973798;28;20026;-65
2023/10/02 07:02:32;;;;;;;6.72;3.70;;;;;;;;;;4973619;28;20417;-64
2023/10/02 07:04:57;;;;;;;9.35;4.00;;;;;;;;;;4976395;28;20035;-66
2023/10/02 07:07:26;;;;;;;10.10;4.30;;;;;;;;;;4973321;28;20383;-66
2023/10/02 07:09:54;;;;;;;12.68;3.92;;;;;;;;;;4973609;28;20190;-64
2023/10/02 07:12:20;;;;;;;11.23;3.92;;;;;;;;;;4973475;28;20026;-63
2023/10/02 07:14:47;;;;;;;12.05;4.53;;;;;;;;;;4973261;28;20090;-63
2023/10/02 07:17:23;;;;;;;13.43;4.03;;;;;;;;;;4973692;28;20027;-63
2023/10/02 07:19:52;;;;;;;13.00;4.32;;;;;;;;;;4973422;28;20027;-68
2023/10/02 07:22:24;;;;;;;11.25;4.40;;;;;;;;;;4981976;28;20027;-65
2023/10/02 07:24:55;;;;;;;6.95;3.75;;;;;;;;;;4973673;28;20030;-64
2023/10/02 07:27:25;;;;;;;9.20;4.32;;;;;;;;;;4973486;28;20462;-63
2023/10/02 07:29:59;;;;;;;10.80;4.10;;;;;;;;;;4973414;28;20101;-63
2023/10/02 07:32:27;;;;;;;12.38;4.68;;;;;;;;;;4972884;28;20386;-68
2023/10/02 07:34:54;;;;;;;11.82;4.40;;;;;;;;;;4973124;28;20023;-69
2023/10/02 07:37:22;;;;;;;10.07;4.22;;;;;;;;;;4972847;28;20023;-69
2023/10/02 07:39:56;;;;;;;11.98;4.50;;;;;;;;;;4973311;28;20023;-68
2023/10/02 07:42:28;;;;;;;14.70;4.63;;;;;;;;;;4973260;28;20045;-65
2023/10/02 07:45:11;;;;;;;11.55;5.30;;;;;;;;;;4976984;28;20026;-63
2023/10/02 07:47:39;;;;;;;12.15;4.40;;;;;;;;;;4976573;28;20499;-68
2023/10/02 07:50:23;;;;;;;12.23;4.22;;;;;;;;;;4976854;28;20555;-64
2023/10/02 07:52:49;;;;;;;11.02;4.40;;;;;;;;;;4976483;28;20035;-64
2023/10/02 07:55:15;;;;;;;13.73;4.60;;;;;;;;;;4975356;28;20031;-66
2023/10/02 07:57:41;;;;;;;11.20;4.35;;;;;;;;;;4983309;28;20027;-63
2023/10/02 08:00:33;;;;;;;14.48;4.30;;;;;;;;;;4976549;28;20110;-63
2023/10/02 08:02:53;;;;;;;11.50;4.15;;;;;;;;;;4976143;28;20041;-69
2023/10/02 08:05:25;;;;;;;16.88;4.97;;;;;;;;;;4976685;28;20027;-63
2023/10/02 08:08:08;;;;;;;10.38;4.38;;;;;;;;;;4976089;28;20548;-64
2023/10/02 08:10:48;;;;;;;13.65;4.53;;;;;;;;;;4976173;28;20438;-64
2023/10/02 08:13:17;;;;;;;12.30;4.47;;;;;;;;;;4976236;28;20034;-64
2023/10/02 08:15:46;;;;;;;13.52;5.00;;;;;;;;;;4979057;28;20029;-64
2023/10/02 08:18:18;;;;;;;11.98;4.88;;;;;;;;;;4975955;28;20023;-64
2023/10/02 08:20:45;;;;;;;13.65;4.70;;;;;;;;;;4976331;28;20038;-63
2023/10/02 08:23:21;;;;;;;12.55;5.00;;;;;;;;;;4976177;28;20101;-67
2023/10/02 08:26:02;;;;;;;15.00;5.05;;;;;;;;;;4976658;28;20114;-66
2023/10/02 08:28:37;;;;;;;11.82;4.65;;;;;;;;;;4976112;28;20066;-67
2023/10/02 08:31:03;;;;;;;13.07;5.40;;;;;;;;;;4975621;28;20019;-70
2023/10/02 08:33:33;;;;;;;13.13;5.32;;;;;;;;;;4976002;28;20034;-64
2023/10/02 08:36:01;;;;;;;12.90;4.60;;;;;;;;;;4976193;28;20082;-63
2023/10/02 08:38:27;;;;;;;14.65;4.93;;;;;;;;;;4974693;28;20085;-64
2023/10/02 08:41:03;;;;;;;10.98;5.00;;;;;;;;;;4976049;28;20031;-63
2023/10/02 08:43:32;;;;;;;13.00;5.00;;;;;;;;;;4976083;28;20035;-64
2023/10/02 08:45:58;;;;;;;15.95;5.32;;;;;;;;;;4975546;28;20035;-64
2023/10/02 08:48:25;;;;;;;11.40;5.13;;;;;;;;;;4975782;28;20053;-67
2023/10/02 08:50:57;;;;;;;10.40;4.75;;;;;;;;;;4975645;28;20035;-65
2023/10/02 08:53:23;;;;;;;13.50;5.07;;;;;;;;;;4975788;28;20085;-65
2023/10/02 08:56:48;;;;;;;12.35;5.20;;;;;;;;;;4980416;28;20329;-64
2023/10/02 08:59:26;;;;;;;16.00;4.75;;;;;;;;;;4992968;28;20092;-69
2023/10/02 09:02:13;;;;;;;10.65;4.72;;;;;;;;;;4995008;28;20101;-65
2023/10/02 09:05:00;;;;;;;12.63;4.78;;;;;;;;;;4995020;28;20073;-64
2023/10/02 09:08:00;;;;;;;12.63;4.47;;;;;;;;;;4982695;28;20046;-64
2023/10/02 09:10:26;;;;;;;15.73;5.13;;;;;;;;;;4975113;28;20038;-64
2023/10/02 09:13:16;;;;;;;11.25;4.63;;;;;;;;;;4975450;28;20043;-64
2023/10/02 09:15:44;;;;;;;;;;;;;;;;;;4967127;28;20043;-64
2023/10/02 09:18:22;;;;;;;9.55;4.65;;;;;;;;;;4974025;28;20379;-66
2023/10/02 09:20:53;;;;;;;12.68;4.95;;;;;;;;;;4975392;28;20149;-66
2023/10/02 09:23:22;;;;;;;13.07;5.03;;;;;;;;;;4974992;28;20031;-65
2023/10/02 09:26:16;;;;;;;14.10;4.90;;;;;;;;;;4975395;28;20110;-63
2023/10/02 09:28:47;;;;;;;19.27;4.65;;;;;;;;;;4974706;28;20038;-64
2023/10/02 09:31:14;;;;;;;12.32;5.05;;;;;;;;;;4975012;28;20031;-63
2023/10/02 09:33:42;;;;;;;13.55;4.88;;;;;;;;;;4974890;28;20134;-64
2023/10/02 09:36:08;;;;;;;17.50;5.00;;;;;;;;;;4974819;28;20066;-63
2023/10/02 09:38:34;;;;;;;12.25;4.47;;;;;;;;;;4974946;28;20030;-64
2023/10/02 09:41:15;;;;;;;13.88;5.03;;;;;;;;;;4974739;28;20027;-64
2023/10/02 09:43:41;;;;;;;15.82;5.57;;;;;;;;;;4974350;28;20035;-63
2023/10/02 09:46:21;;;;;;;12.95;4.57;;;;;;;;;;4974727;28;20106;-65
2023/10/02 09:49:09;;;;;;;13.88;5.13;;;;;;;;;;4974864;28;20031;-64
2023/10/02 09:55:08;;;;;;;12.77;4.70;;;;;;;;;;4934127;29;20505;-63
2023/10/02 09:57:36;;;;;;;;;;;;;;;;;;4952813;29;20099;-62
2023/10/02 10:03:14;;;;;;;;;;;;;;;;;;4953875;29;20085;-63
2023/10/02 10:06:19;;;;;;;15.35;4.88;;;;;;;;;;4952525;28;19937;-64
2023/10/02 10:12:21;;;;;;;13.35;4.43;;;;;;;;;;4933054;29;20042;-64
2023/10/02 10:14:36;;;;;;;17.42;5.00;;;;;;;;;;4932131;29;20050;-64
2023/10/02 10:17:13;;;;;;;13.00;4.65;;;;;;;;;;4933648;29;20596;-64
2023/10/02 10:20:18;;;;;;;14.25;4.78;;;;;;;;;;4932989;29;20067;-64
2023/10/02 10:22:56;;;;;;;8.88;4.50;;;;;;;;;;4931713;29;20035;-64
2023/10/02 10:30:45;;;;;;;13.80;5.28;;;;;;;;;;4951376;28;20484;-63
2023/10/02 10:35:41;;;;;;;16.73;5.15;;;;;;;;;;4973161;28;20050;-68
2023/10/02 10:38:42;;;;;;;13.82;5.07;;;;;;;;;;4973956;28;20035;-64
2023/10/02 10:41:31;;;;;;;11.80;5.25;;;;;;;;;;4971461;28;20035;-63
2023/10/02 10:43:56;;;;;;;12.63;5.50;;;;;;;;;;4973956;28;20532;-63
2023/10/02 10:46:29;;;;;;;21.15;5.28;;;;;;;;;;4971393;28;20177;-64
2023/10/02 10:48:59;;;;;;;14.57;5.68;;;;;;;;;;4973189;28;20544;-64
2023/10/02 10:51:27;;;;;;;17.00;5.70;;;;;;;;;;4965089;28;20031;-68
2023/10/02 10:54:12;;;;;;;13.00;5.72;;;;;;;;;;4954520;28;20490;-63
2023/10/02 10:56:56;;;;;;;16.08;5.82;;;;;;;;;;4976565;28;20113;-63
2023/10/02 10:59:32;;;;;;;20.88;5.90;;;;;;;;;;4993256;28;20034;-63
2023/10/02 11:02:14;;;;;;;15.45;6.05;;;;;;;;;;4988311;28;20018;-64
2023/10/02 11:04:47;;;;;;;14.77;5.38;;;;;;;;;;4973579;28;20499;-63
2023/10/02 11:07:25;;;;;;;12.27;5.50;;;;;;;;;;4973239;28;20400;-64
2023/10/02 11:10:16;;;;;;;16.42;5.60;;;;;;;;;;4954610;28;20035;-63
2023/10/02 11:12:56;;;;;;;14.40;6.13;;;;;;;;;;4954278;28;20043;-64
2023/10/02 11:18:20;;;;;;;13.68;6.03;;;;;;;;;;4955701;28;20042;-64
2023/10/02 11:20:51;;;;;;;13.02;6.40;;;;;;;;;;4958077;28;20039;-64
2023/10/02 11:23:38;;;;;;;13.68;6.30;;;;;;;;;;4966738;28;20035;-63
2023/10/02 11:26:11;;;;;;;16.13;6.00;;;;;;;;;;4957993;29;20563;-64
2023/10/02 11:28:39;;;;;;;16.25;6.18;;;;;;;;;;4957759;28;20027;-63
2023/10/02 11:31:29;;;;;;;17.80;6.55;;;;;;;;;;4957921;28;20015;-63
2023/10/02 11:34:05;;;;;;;15.75;6.45;;;;;;;;;;4973003;28;20027;-64
2023/10/02 11:36:37;;;;;;;16.30;6.38;;;;;;;;;;4977072;28;20105;-64
2023/10/02 11:39:09;;;;;;;19.88;6.43;;;;;;;;;;4976793;28;20035;-64
2023/10/02 11:41:38;;;;;;;17.65;6.63;;;;;;;;;;4976976;28;20110;-63
2023/10/02 11:44:12;;;;;;;16.60;6.18;;;;;;;;;;4976939;28;20031;-66
2023/10/02 11:46:41;;;;;;;22.85;6.97;;;;;;;;;;4976942;28;20035;-65
2023/10/02 11:49:08;;;;;;;19.35;7.78;;;;;;;;;;4976624;28;20019;-64
2023/10/02 11:51:33;;;;;;;15.85;6.22;;;;;;;;;;4976646;28;20027;-67
2023/10/02 11:54:05;;;;;;;13.55;6.32;;;;;;;;;;4976650;28;20078;-63
2023/10/02 11:56:31;;;;;;;22.05;6.60;;;;;;;;;;4986898;28;20117;-63
2023/10/02 11:58:57;;;;;;;16.83;6.28;;;;;;;;;;4996222;28;20109;-65
2023/10/02 12:01:24;;;;;;;15.32;5.38;;;;;;;;;;4996121;28;20031;-64
2023/10/02 12:03:50;;;;;;;13.93;6.13;;;;;;;;;;4995972;28;20106;-63
2023/10/02 12:06:19;;;;;;;13.75;6.15;;;;;;;;;;4995705;28;20034;-63
2023/10/02 12:08:44;;;;;;;14.32;6.00;;;;;;;;;;4983647;28;20085;-64
2023/10/02 12:11:13;;;;;;;17.73;6.40;;;;;;;;;;4976413;28;20062;-63
2023/10/02 12:13:40;;;;;;;17.65;6.97;;;;;;;;;;4976455;28;20035;-63
2023/10/02 12:16:10;;;;;;;15.40;6.30;;;;;;;;;;4976507;28;20106;-64
2023/10/02 12:18:36;;;;;;;12.48;5.88;;;;;;;;;;4976287;28;20062;-63
2023/10/02 12:21:08;;;;;;;13.57;6.28;;;;;;;;;;4975168;28;20424;-64
2023/10/02 12:23:38;;;;;;;13.13;6.10;;;;;;;;;;4976129;28;20046;-64
2023/10/02 12:26:04;;;;;;;13.88;5.93;;;;;;;;;;4976342;28;20503;-63
2023/10/02 12:28:30;;;;;;;16.60;6.13;;;;;;;;;;4975440;28;20023;-63
2023/10/02 12:30:55;;;;;;;11.70;5.88;;;;;;;;;;4975720;28;20162;-63
2023/10/02 12:33:20;;;;;;;13.35;6.20;;;;;;;;;;4974576;28;20045;-64
2023/10/02 12:35:46;;;;;;;13.50;5.97;;;;;;;;;;4975330;28;20404;-63
2023/10/02 12:38:13;;;;;;;12.88;5.95;;;;;;;;;;4975615;28;20457;-63
2023/10/02 12:40:40;;;;;;;13.38;6.07;;;;;;;;;;4975325;28;20074;-70
2023/10/02 12:43:06;;;;;;;13.30;6.32;;;;;;;;;;4974949;28;20416;-66
2023/10/02 12:45:35;;;;;;;12.88;5.85;;;;;;;;;;4975077;28;20035;-64
2023/10/02 12:48:06;;;;;;;11.97;6.20;;;;;;;;;;4975559;28;20023;-64
2023/10/02 12:50:41;;;;;;;12.45;5.72;;;;;;;;;;4975382;28;20051;-64
2023/10/02 12:53:10;;;;;;;13.98;6.53;;;;;;;;;;4959997;28;20481;-64
2023/10/02 12:55:36;;;;;;;14.20;6.20;;;;;;;;;;4961420;28;20423;-63
2023/10/02 12:58:04;;;;;;;14.68;6.05;;;;;;;;;;4995039;28;20029;-63
2023/10/02 13:00:33;;;;;;;11.50;5.82;;;;;;;;;;4994932;28;20036;-65
2023/10/02 13:02:59;;;;;;;11.23;5.85;;;;;;;;;;4995337;28;20040;-65
2023/10/02 13:05:25;;;;;;;15.35;6.05;;;;;;;;;;4994986;28;20034;-63
2023/10/02 13:07:56;;;;;;;13.18;5.78;;;;;;;;;;4989449;28;20055;-63
2023/10/02 13:10:25;;;;;;;11.68;5.95;;;;;;;;;;4975352;28;20050;-63
2023/10/02 13:12:50;;;;;;;13.32;6.22;;;;;;;;;;4975199;28;20105;-64
2023/10/02 13:15:16;;;;;;;17.67;6.68;;;;;;;;;;4974909;28;20035;-63
2023/10/02 13:17:42;;;;;;;13.95;6.28;;;;;;;;;;4975233;28;20405;-63
2023/10/02 13:20:10;;;;;;;13.25;5.45;;;;;;;;;;4975321;28;20421;-67
2023/10/02 13:22:36;;;;;;;14.80;6.38;;;;;;;;;;4974836;28;20023;-63
2023/10/02 13:25:05;;;;;;;15.60;5.82;;;;;;;;;;4974192;28;20026;-63
2023/10/02 13:27:31;;;;;;;10.32;5.45;;;;;;;;;;4974437;28;20494;-63
2023/10/02 13:29:57;;;;;;;9.00;4.90;;;;;;;;;;4974936;28;20102;-63
2023/10/02 13:32:23;;;;;;;11.60;5.88;;;;;;;;;;4974542;28;20029;-64
2023/10/02 13:34:51;;;;;;;10.40;5.00;;;;;;;;;;4974962;28;20022;-66
2023/10/02 13:37:16;;;;;;;16.23;5.53;;;;;;;;;;4974678;28;20031;-65
2023/10/02 13:39:42;;;;;;;14.10;5.85;;;;;;;;;;4974681;28;20109;-64
2023/10/02 13:42:08;;;;;;;12.20;6.03;;;;;;;;;;4973695;28;20031;-70
2023/10/02 13:44:34;;;;;;;11.35;5.30;;;;;;;;;;4974826;28;20034;-70
2023/10/02 13:47:00;;;;;;;16.67;6.35;;;;;;;;;;4974716;28;20476;-64
2023/10/02 13:49:26;;;;;;;11.38;5.60;;;;;;;;;;4973235;28;20035;-65
2023/10/02 13:51:52;;;;;;;13.75;5.90;;;;;;;;;;4972283;28;20451;-63
2023/10/02 13:54:18;;;;;;;18.85;5.13;;;;;;;;;;4957743;28;20144;-63
2023/10/02 13:56:45;;;;;;;11.50;5.63;;;;;;;;;;4979349;28;20026;-65
2023/10/02 13:59:11;;;;;;;10.90;5.50;;;;;;;;;;4975259;28;20082;-65
2023/10/02 14:01:37;;;;;;;11.38;5.57;;;;;;;;;;4973543;28;20023;-63
2023/10/02 14:04:06;;;;;;;12.77;4.97;;;;;;;;;;4974160;28;20027;-63
2023/10/02 14:06:32;;;;;;;11.27;5.53;;;;;;;;;;4974484;28;20496;-64
2023/10/02 14:08:59;;;;;;;14.50;5.10;;;;;;;;;;4973896;28;20051;-61
2023/10/02 14:11:26;;;;;;;12.07;5.57;;;;;;;;;;4974200;28;20083;-67
2023/10/02 14:13:53;;;;;;;11.68;5.00;;;;;;;;;;4972891;28;20031;-67
2023/10/02 14:16:19;;;;;;;11.38;5.63;;;;;;;;;;4973829;28;20049;-68
2023/10/02 14:18:51;;;;;;;13.65;5.32;;;;;;;;;;4973930;28;20081;-64
2023/10/02 14:21:17;;;;;;;9.55;4.68;;;;;;;;;;4972748;28;20077;-63
2023/10/02 14:23:45;;;;;;;9.88;4.93;;;;;;;;;;4973826;28;20042;-64
2023/10/02 14:26:11;;;;;;;10.35;5.63;;;;;;;;;;4973920;28;20035;-63
2023/10/02 14:28:37;;;;;;;10.43;5.22;;;;;;;;;;4973906;28;20022;-64
2023/10/02 14:31:02;;;;;;;13.75;5.53;;;;;;;;;;4973936;28;20763;-69
2023/10/02 14:33:28;;;;;;;15.07;5.93;;;;;;;;;;4973775;28;20022;-64
2023/10/02 14:35:55;;;;;;;13.98;6.22;;;;;;;;;;4973882;28;20035;-64
2023/10/02 14:38:23;;;;;;;13.52;5.95;;;;;;;;;;4972775;28;20392;-63
2023/10/02 14:40:49;;;;;;;10.38;5.40;;;;;;;;;;4973360;28;20027;-64
2023/10/02 14:43:15;;;;;;;12.15;5.93;;;;;;;;;;4973667;28;20031;-64
2023/10/02 14:45:42;;;;;;;13.95;6.78;;;;;;;;;;4973816;28;20030;-70
2023/10/02 14:48:07;;;;;;;14.00;5.93;;;;;;;;;;4973925;28;20417;-63
2023/10/02 14:50:37;;;;;;;13.48;5.88;;;;;;;;;;4973866;28;20027;-65
2023/10/02 14:53:03;;;;;;;13.15;6.18;;;;;;;;;;4967609;28;20116;-64
2023/10/02 14:55:31;;;;;;;12.57;5.63;;;;;;;;;;4958480;28;20430;-63
2023/10/02 14:57:56;;;;;;;11.57;5.63;;;;;;;;;;4973151;28;20022;-64
2023/10/02 15:00:22;;;;;;;11.30;5.20;;;;;;;;;;4973543;28;20079;-63
2023/10/02 15:02:51;;;;;;;10.50;5.28;;;;;;;;;;4973544;28;20031;-63
2023/10/02 15:05:22;;;;;;;10.73;5.63;;;;;;;;;;4973497;28;20034;-64
2023/10/02 15:07:52;;;;;;;10.25;5.13;;;;;;;;;;4973326;28;20407;-67
2023/10/02 15:10:23;;;;;;;14.80;5.40;;;;;;;;;;4972645;28;20031;-64
2023/10/02 15:12:52;;;;;;;12.60;5.35;;;;;;;;;;4973545;28;20046;-61
2023/10/02 15:15:20;;;;;;;9.77;4.97;;;;;;;;;;4973811;28;20038;-64
2023/10/02 15:17:51;;;;;;;10.35;5.47;;;;;;;;;;4972601;28;20039;-63
2023/10/02 15:20:21;;;;;;;20.73;5.55;;;;;;;;;;4973623;28;20031;-63
2023/10/02 15:22:56;;;;;;;16.88;5.68;;;;;;;;;;4973574;28;20121;-64
2023/10/02 15:25:23;;;;;;;13.90;5.55;;;;;;;;;;4972371;28;20110;-64
2023/10/02 15:27:53;;;;;;;20.85;6.18;;;;;;;;;;4972019;28;20124;-63
2023/10/02 15:30:21;;;;;;;12.25;5.30;;;;;;;;;;4973137;28;20461;-64
2023/10/02 15:32:48;;;;;;;15.30;5.32;;;;;;;;;;4972081;28;20038;-64
2023/10/02 15:35:16;;;;;;;10.70;5.18;;;;;;;;;;4972394;28;20107;-64
2023/10/02 15:37:45;;;;;;;16.23;5.65;;;;;;;;;;4971993;28;20396;-63
2023/10/02 15:40:18;;;;;;;16.83;6.00;;;;;;;;;;4972079;28;20503;-64
2023/10/02 15:42:44;;;;;;;12.05;5.07;;;;;;;;;;4971590;28;20030;-65
2023/10/02 15:45:18;;;;;;;11.48;5.50;;;;;;;;;;4973447;28;20029;-64
2023/10/02 15:47:46;;;;;;;11.77;5.32;;;;;;;;;;4972464;28;20030;-66
2023/10/02 15:50:12;;;;;;;11.75;5.70;;;;;;;;;;4972837;28;20535;-62
2023/10/02 15:52:38;;;;;;;13.40;5.90;;;;;;;;;;4972355;28;20057;-63